Time;durP1;ratioP1;P1;durP2;ratioP2;P2;SDS_P1;SDS_P2;PMS_P1;PMS_P2;Temp;Humidity;BMP_temperature;BMP_pressure;BME280_temperature;BME280_humidity;BME280_pressure;Samples;Min_cycle;Max_cycle;Signal;HPM_P1;HPM_P2
2023/07/03 00:00:23;;;;;;;8.43;4.87;;;23.20;49.60;;;;;;4984272;28;20490;-67
2023/07/03 00:02:52;;;;;;;4.97;4.00;;;23.20;49.40;;;;;;4985865;28;20470;-67
2023/07/03 00:05:23;;;;;;;5.63;4.73;;;23.20;49.50;;;;;;4984267;28;20495;-67
2023/07/03 00:07:53;;;;;;;5.47;4.10;;;23.20;49.20;;;;;;4970164;28;20471;-68
2023/07/03 00:10:22;;;;;;;5.63;4.10;;;23.10;49.00;;;;;;4969962;28;20493;-68
2023/07/03 00:12:50;;;;;;;5.63;4.17;;;23.10;49.40;;;;;;4986760;28;20461;-66
2023/07/03 00:15:19;;;;;;;4.67;4.20;;;23.20;49.40;;;;;;4986197;28;20509;-68
2023/07/03 00:17:48;;;;;;;6.57;4.23;;;23.10;49.30;;;;;;4992938;28;20446;-68
2023/07/03 00:20:16;;;;;;;7.50;4.33;;;23.10;49.40;;;;;;4981446;28;20485;-68
2023/07/03 00:22:46;;;;;;;5.20;3.93;;;23.10;49.40;;;;;;4972056;28;20457;-68
2023/07/03 00:25:16;;;;;;;6.23;4.23;;;23.20;49.40;;;;;;4989722;28;20828;-67
2023/07/03 00:27:46;;;;;;;6.70;4.30;;;23.10;49.40;;;;;;4987564;28;20588;-67
2023/07/03 00:30:16;;;;;;;10.10;4.50;;;23.10;48.90;;;;;;4987614;28;20479;-68
2023/07/03 00:32:44;;;;;;;9.20;4.63;;;23.10;49.50;;;;;;4993223;28;20454;-67
2023/07/03 00:35:13;;;;;;;8.53;4.33;;;23.10;49.10;;;;;;4993983;28;21003;-67
2023/07/03 00:37:41;;;;;;;5.90;3.83;;;23.10;49.40;;;;;;5004327;28;20452;-67
2023/07/03 00:40:11;;;;;;;5.40;3.83;;;23.10;49.40;;;;;;4988514;28;20476;-67
2023/07/03 00:42:41;;;;;;;4.80;3.73;;;23.10;49.40;;;;;;4991105;28;20466;-68
2023/07/03 00:45:10;;;;;;;4.80;4.10;;;23.10;49.30;;;;;;4991844;28;20493;-68
2023/07/03 00:47:39;;;;;;;8.00;4.60;;;23.10;49.20;;;;;;4996262;28;20456;-68
2023/07/03 00:50:09;;;;;;;7.50;4.40;;;23.10;49.50;;;;;;4995100;28;20476;-68
2023/07/03 00:52:41;;;;;;;6.33;3.70;;;23.10;49.40;;;;;;4999060;28;20578;-67
2023/07/03 00:55:13;;;;;;;4.53;3.20;;;23.10;49.20;;;;;;4993996;28;20474;-67
2023/07/03 00:57:43;;;;;;;6.00;4.20;;;23.10;49.30;;;;;;4999043;28;20470;-68
2023/07/03 01:00:13;;;;;;;7.03;3.30;;;23.10;49.30;;;;;;4995549;28;20998;-67
2023/07/03 01:02:48;;;;;;;6.20;3.70;;;23.10;49.40;;;;;;4991052;28;20468;-67
2023/07/03 01:05:22;;;;;;;7.00;3.47;;;23.10;49.40;;;;;;4995227;28;20892;-67
2023/07/03 01:07:52;;;;;;;5.40;3.97;;;23.10;49.60;;;;;;4988698;28;20492;-67
2023/07/03 01:10:24;;;;;;;4.80;4.33;;;23.10;49.40;;;;;;4996266;28;20477;-68
2023/07/03 01:12:57;;;;;;;6.20;3.90;;;23.10;49.40;;;;;;4984566;28;20484;-67
2023/07/03 01:15:28;;;;;;;5.50;3.60;;;23.10;49.50;;;;;;4995622;28;20474;-68
2023/07/03 01:17:59;;;;;;;6.30;4.53;;;23.10;49.70;;;;;;4992621;28;20438;-68
2023/07/03 01:20:33;;;;;;;7.27;4.13;;;23.10;49.20;;;;;;4992252;28;20471;-68
2023/07/03 01:23:07;;;;;;;6.40;3.70;;;23.10;49.30;;;;;;4995751;28;20458;-68
2023/07/03 01:25:41;;;;;;;5.03;3.60;;;23.10;49.40;;;;;;4990485;28;20893;-68
2023/07/03 01:28:14;;;;;;;6.53;4.43;;;23.10;49.20;;;;;;4978516;28;20445;-67
2023/07/03 01:30:44;;;;;;;5.60;4.50;;;23.10;49.30;;;;;;4981119;28;20429;-67
2023/07/03 01:33:18;;;;;;;5.87;3.37;;;23.10;49.10;;;;;;4988362;28;20449;-66
2023/07/03 01:35:48;;;;;;;7.50;3.80;;;23.10;49.40;;;;;;4986019;28;20464;-68
2023/07/03 01:38:18;;;;;;;7.57;4.20;;;23.00;49.20;;;;;;4993980;28;20457;-68
2023/07/03 01:40:49;;;;;;;8.13;4.37;;;23.10;49.50;;;;;;4988549;28;20479;-67
2023/07/03 01:43:20;;;;;;;6.13;4.20;;;23.00;49.60;;;;;;4987600;28;20462;-66
2023/07/03 01:45:48;;;;;;;7.60;3.97;;;23.00;50.70;;;;;;4994696;28;20473;-68
2023/07/03 01:48:20;;;;;;;4.83;3.10;;;23.10;49.40;;;;;;4988094;28;20788;-68
2023/07/03 01:50:49;;;;;;;5.13;3.50;;;23.00;49.50;;;;;;4975051;28;20526;-66
2023/07/03 01:53:25;;;;;;;8.03;3.77;;;23.00;49.50;;;;;;4999666;28;20881;-66
2023/07/03 01:56:00;;;;;;;9.60;4.07;;;23.10;49.20;;;;;;4979736;28;20507;-68
2023/07/03 01:58:35;;;;;;;8.80;4.13;;;23.00;49.40;;;;;;4979312;28;20812;-67
2023/07/03 02:01:07;;;;;;;4.80;3.93;;;23.00;49.30;;;;;;4992872;28;20901;-68
2023/07/03 02:03:43;;;;;;;6.30;4.20;;;23.00;49.40;;;;;;4998044;28;20829;-68
2023/07/03 02:06:16;;;;;;;4.93;3.27;;;23.00;49.50;;;;;;4989982;28;20456;-67
2023/07/03 02:08:45;;;;;;;4.40;3.60;;;23.00;49.50;;;;;;4995430;28;20552;-67
2023/07/03 02:11:17;;;;;;;4.90;3.63;;;23.00;49.50;;;;;;4995625;28;20446;-67
2023/07/03 02:13:48;;;;;;;5.60;3.73;;;23.00;49.50;;;;;;4987158;28;20882;-66
2023/07/03 02:16:18;;;;;;;4.53;3.97;;;23.00;49.70;;;;;;4986633;28;20457;-68
2023/07/03 02:18:47;;;;;;;5.30;3.63;;;23.00;49.60;;;;;;4995703;28;20831;-67
2023/07/03 02:21:17;;;;;;;6.40;3.70;;;23.00;49.30;;;;;;4990389;28;20995;-68
2023/07/03 02:23:47;;;;;;;5.13;3.50;;;23.00;49.40;;;;;;5001207;28;20460;-68
2023/07/03 02:26:17;;;;;;;5.73;3.50;;;23.00;49.40;;;;;;4986382;28;20917;-68
2023/07/03 02:28:45;;;;;;;6.40;3.23;;;23.00;49.40;;;;;;4994789;28;20466;-68
2023/07/03 02:31:14;;;;;;;6.60;3.30;;;23.00;49.60;;;;;;4991043;28;20450;-68
2023/07/03 02:33:42;;;;;;;7.70;3.97;;;23.00;49.60;;;;;;4996117;28;20442;-67
2023/07/03 02:36:11;;;;;;;4.60;3.30;;;23.00;49.50;;;;;;4985533;28;20462;-67
2023/07/03 02:38:39;;;;;;;6.60;4.20;;;23.00;49.50;;;;;;4994457;28;20479;-68
2023/07/03 02:41:07;;;;;;;5.40;3.20;;;23.00;49.70;;;;;;4993934;28;20486;-68
2023/07/03 02:43:37;;;;;;;6.47;3.60;;;23.00;49.60;;;;;;4996427;28;20835;-68
2023/07/03 02:46:08;;;;;;;6.33;3.80;;;23.00;49.60;;;;;;4991585;28;20449;-68
2023/07/03 02:48:37;;;;;;;4.07;3.30;;;23.00;49.60;;;;;;4986468;28;20453;-68
2023/07/03 02:51:07;;;;;;;4.37;3.27;;;23.00;49.60;;;;;;4985166;28;20453;-68
2023/07/03 02:53:35;;;;;;;5.10;3.40;;;22.90;49.40;;;;;;4979388;28;20473;-67
2023/07/03 02:56:10;;;;;;;4.00;2.90;;;22.90;49.50;;;;;;4986822;28;20445;-68
2023/07/03 02:58:43;;;;;;;9.30;3.67;;;23.00;49.80;;;;;;4987749;28;20471;-67
2023/07/03 03:01:17;;;;;;;3.63;3.20;;;22.90;49.30;;;;;;4989149;28;20881;-67
2023/07/03 03:03:47;;;;;;;5.90;3.93;;;22.90;49.50;;;;;;4985568;28;20468;-68
2023/07/03 03:06:16;;;;;;;5.93;4.10;;;22.90;49.40;;;;;;4968680;28;20604;-67
2023/07/03 03:08:45;;;;;;;4.00;3.40;;;22.90;49.50;;;;;;4989133;28;20444;-67
2023/07/03 03:11:14;;;;;;;4.60;3.00;;;22.90;49.50;;;;;;4996007;28;20464;-67
2023/07/03 03:13:46;;;;;;;4.10;3.30;;;22.90;49.60;;;;;;4994982;28;20457;-68
2023/07/03 03:16:16;;;;;;;4.63;3.50;;;22.90;49.50;;;;;;4990866;28;20745;-67
2023/07/03 03:18:47;;;;;;;4.57;2.40;;;22.90;49.70;;;;;;4986117;28;20476;-68
2023/07/03 03:21:16;;;;;;;3.03;2.70;;;22.90;49.40;;;;;;4994533;28;20461;-67
2023/07/03 03:23:47;;;;;;;6.20;3.63;;;22.90;49.60;;;;;;4986873;28;20480;-65
2023/07/03 03:26:16;;;;;;;4.67;3.23;;;22.90;49.40;;;;;;4986660;28;20461;-66
2023/07/03 03:28:46;;;;;;;6.70;3.63;;;22.90;49.20;;;;;;4980421;28;20449;-66
2023/07/03 03:31:14;;;;;;;4.10;3.13;;;22.90;49.40;;;;;;4990096;28;20529;-66
2023/07/03 03:33:51;;;;;;;5.43;3.70;;;22.90;49.30;;;;;;4988728;28;20473;-67
2023/07/03 03:36:20;;;;;;;4.77;3.27;;;22.90;49.20;;;;;;4989739;28;20797;-67
2023/07/03 03:38:49;;;;;;;5.20;3.20;;;22.90;49.60;;;;;;4979096;28;20441;-67
2023/07/03 03:41:18;;;;;;;4.93;2.97;;;22.90;49.50;;;;;;4985551;28;20532;-67
2023/07/03 03:43:49;;;;;;;8.07;3.57;;;22.80;49.30;;;;;;4985200;28;20473;-68
2023/07/03 03:46:21;;;;;;;5.50;3.73;;;22.80;49.10;;;;;;4992750;28;20510;-67
2023/07/03 03:48:50;;;;;;;4.80;3.03;;;22.80;49.40;;;;;;4986639;28;20859;-66
2023/07/03 03:51:19;;;;;;;6.43;3.20;;;22.80;49.60;;;;;;4985245;28;20818;-66
2023/07/03 03:53:48;;;;;;;6.60;3.53;;;22.80;49.50;;;;;;4985936;28;20461;-67
2023/07/03 03:56:17;;;;;;;6.63;3.50;;;22.80;49.50;;;;;;4985960;28;20950;-67
2023/07/03 03:58:45;;;;;;;6.93;3.20;;;22.80;49.60;;;;;;4993847;28;20439;-67
2023/07/03 04:01:15;;;;;;;6.77;3.43;;;22.80;49.60;;;;;;4986199;28;20470;-66
2023/07/03 04:03:44;;;;;;;10.97;3.50;;;22.80;49.50;;;;;;4997817;28;20471;-66
2023/07/03 04:06:16;;;;;;;6.20;3.60;;;22.80;49.40;;;;;;4979284;28;20458;-67
2023/07/03 04:08:44;;;;;;;4.43;3.20;;;22.80;49.50;;;;;;4987519;28;20453;-66
2023/07/03 04:11:15;;;;;;;6.50;3.60;;;22.80;49.60;;;;;;5005935;28;20623;-66
2023/07/03 04:13:43;;;;;;;5.87;3.67;;;22.80;49.70;;;;;;4989069;28;20470;-67
2023/07/03 04:16:13;;;;;;;5.70;3.20;;;22.80;49.70;;;;;;4982066;28;20445;-67
2023/07/03 04:18:43;;;;;;;5.43;2.50;;;22.80;49.60;;;;;;4978073;28;20491;-67
2023/07/03 04:21:12;;;;;;;9.67;3.60;;;22.80;50.80;;;;;;4984780;28;20457;-66
2023/07/03 04:23:40;;;;;;;6.30;2.90;;;22.70;49.50;;;;;;4986769;28;20461;-66
2023/07/03 04:26:09;;;;;;;6.20;4.13;;;22.70;49.70;;;;;;4985497;28;20476;-67
2023/07/03 04:28:39;;;;;;;6.53;3.20;;;22.70;49.60;;;;;;4984557;28;20446;-67
2023/07/03 04:31:07;;;;;;;5.67;3.00;;;22.70;49.70;;;;;;4998683;28;20444;-67
2023/07/03 04:33:36;;;;;;;5.70;3.20;;;22.70;49.70;;;;;;4986632;28;20480;-67
2023/07/03 04:36:06;;;;;;;7.53;3.07;;;22.70;49.80;;;;;;4983623;28;20445;-67
2023/07/03 04:38:35;;;;;;;4.77;3.10;;;22.70;49.70;;;;;;4979932;28;20451;-68
2023/07/03 04:41:04;;;;;;;9.07;3.47;;;22.70;49.70;;;;;;4990377;28;20427;-66
2023/07/03 04:43:32;;;;;;;8.17;4.20;;;22.70;49.60;;;;;;4988756;28;21012;-67
2023/07/03 04:46:03;;;;;;;5.93;3.33;;;22.70;49.70;;;;;;4978844;28;20444;-67
2023/07/03 04:48:32;;;;;;;6.50;3.40;;;22.70;49.70;;;;;;4987536;28;20466;-66
2023/07/03 04:51:01;;;;;;;6.40;3.47;;;22.70;49.70;;;;;;4984559;28;20511;-67
2023/07/03 04:53:31;;;;;;;6.83;3.57;;;22.70;49.80;;;;;;4986210;28;20468;-67
2023/07/03 04:55:59;;;;;;;6.23;3.37;;;22.70;49.90;;;;;;4966960;28;20457;-66
2023/07/03 04:58:28;;;;;;;5.23;3.93;;;22.70;50.20;;;;;;4992829;28;20468;-67
2023/07/03 05:00:57;;;;;;;7.80;3.10;;;22.70;49.90;;;;;;4985542;28;20433;-66
2023/07/03 05:03:26;;;;;;;4.73;2.87;;;22.70;50.10;;;;;;4985618;28;20465;-67
2023/07/03 05:05:54;;;;;;;8.43;3.20;;;22.60;49.70;;;;;;4983540;28;20444;-67
2023/07/03 05:08:24;;;;;;;5.53;3.13;;;22.70;50.10;;;;;;4985436;28;20492;-67
2023/07/03 05:10:54;;;;;;;4.90;3.33;;;22.70;50.00;;;;;;4988818;28;20439;-66
2023/07/03 05:13:23;;;;;;;6.50;2.97;;;22.60;50.00;;;;;;4992829;28;20475;-67
2023/07/03 05:15:51;;;;;;;5.50;3.40;;;22.70;50.10;;;;;;4987855;28;20453;-67
2023/07/03 05:18:20;;;;;;;8.07;3.63;;;22.70;50.20;;;;;;4984884;28;20458;-67
2023/07/03 05:20:50;;;;;;;4.60;2.90;;;22.70;50.20;;;;;;4987020;28;20449;-68
2023/07/03 05:23:19;;;;;;;4.50;3.20;;;22.60;50.10;;;;;;4988483;28;20495;-67
2023/07/03 05:25:48;;;;;;;4.57;3.10;;;22.60;49.80;;;;;;4996385;28;20451;-66
2023/07/03 05:28:18;;;;;;;5.67;3.80;;;22.60;50.00;;;;;;5000116;28;20456;-67
2023/07/03 05:30:55;;;;;;;5.50;3.43;;;22.60;49.90;;;;;;4990336;28;20452;-67
2023/07/03 05:33:24;;;;;;;5.03;3.20;;;22.60;50.00;;;;;;5002530;28;20900;-65
2023/07/03 05:35:53;;;;;;;8.10;3.00;;;22.60;50.10;;;;;;4987079;28;20444;-66
2023/07/03 05:38:22;;;;;;;6.00;3.10;;;22.60;49.90;;;;;;4989775;28;20453;-66
2023/07/03 05:40:51;;;;;;;5.27;3.70;;;22.60;50.00;;;;;;4993590;28;20923;-67
2023/07/03 05:43:22;;;;;;;4.20;2.97;;;22.60;50.00;;;;;;4973373;28;20467;-67
2023/07/03 05:45:50;;;;;;;8.57;3.40;;;22.60;50.00;;;;;;4985935;28;20448;-67
2023/07/03 05:48:20;;;;;;;5.40;2.97;;;22.60;50.10;;;;;;4980489;28;20461;-66
2023/07/03 05:50:48;;;;;;;7.97;4.47;;;22.60;50.10;;;;;;4995581;28;20498;-66
2023/07/03 05:53:17;;;;;;;5.43;3.20;;;22.60;49.80;;;;;;4981997;28;20474;-67
2023/07/03 05:55:54;;;;;;;7.50;3.17;;;22.60;50.00;;;;;;4999242;28;20435;-67
2023/07/03 05:58:26;;;;;;;4.03;3.00;;;22.60;50.00;;;;;;4992626;28;20914;-66
2023/07/03 06:00:55;;;;;;;3.93;3.07;;;22.60;50.10;;;;;;4986904;28;20459;-67
2023/07/03 06:03:24;;;;;;;5.23;3.33;;;22.60;51.30;;;;;;4990002;28;20472;-67
2023/07/03 06:05:53;;;;;;;6.80;3.53;;;22.50;50.00;;;;;;4971829;28;20451;-67
2023/07/03 06:08:24;;;;;;;7.23;3.63;;;22.50;50.00;;;;;;4991320;28;20456;-66
2023/07/03 06:10:53;;;;;;;4.50;2.70;;;22.50;50.20;;;;;;4994032;28;20449;-66
2023/07/03 06:13:22;;;;;;;5.90;3.50;;;22.50;50.40;;;;;;4972478;28;21002;-68
2023/07/03 06:15:52;;;;;;;4.50;3.20;;;22.50;50.30;;;;;;4995882;28;20437;-68
2023/07/03 06:18:21;;;;;;;5.63;2.87;;;22.50;50.40;;;;;;4994426;28;20790;-68
2023/07/03 06:20:50;;;;;;;4.60;2.80;;;22.50;50.30;;;;;;4987979;28;20444;-66
2023/07/03 06:23:18;;;;;;;4.67;3.10;;;22.50;50.40;;;;;;4991892;28;20559;-66
2023/07/03 06:25:47;;;;;;;7.67;3.83;;;22.60;50.30;;;;;;4987442;28;20444;-67
2023/07/03 06:28:16;;;;;;;4.93;2.97;;;22.50;50.40;;;;;;5000289;28;20434;-67
2023/07/03 06:30:49;;;;;;;5.33;3.20;;;22.50;50.30;;;;;;4988601;28;20543;-67
2023/07/03 06:33:20;;;;;;;8.23;4.07;;;22.50;50.20;;;;;;4999345;28;20467;-67
2023/07/03 06:35:50;;;;;;;4.80;2.67;;;22.40;50.20;;;;;;4994609;28;20464;-65
2023/07/03 06:38:20;;;;;;;7.10;3.50;;;22.50;50.50;;;;;;4970517;28;20438;-67
2023/07/03 06:40:56;;;;;;;4.33;2.73;;;22.50;50.50;;;;;;4987213;28;20432;-66
2023/07/03 06:43:25;;;;;;;6.23;3.20;;;22.40;50.40;;;;;;4985730;28;20484;-67
2023/07/03 06:45:53;;;;;;;6.00;3.40;;;22.40;50.40;;;;;;4997785;28;20447;-67
2023/07/03 06:48:27;;;;;;;7.43;3.37;;;22.40;50.30;;;;;;4995063;28;20487;-65
2023/07/03 06:51:04;;;;;;;5.73;3.27;;;22.40;50.40;;;;;;4986230;28;20781;-67
2023/07/03 06:53:33;;;;;;;10.30;3.70;;;22.40;50.50;;;;;;4986950;28;20503;-66
2023/07/03 06:56:03;;;;;;;4.97;2.90;;;22.40;50.40;;;;;;4991351;28;20442;-67
2023/07/03 06:58:33;;;;;;;4.73;2.63;;;22.40;50.50;;;;;;4977618;28;20539;-67
2023/07/03 07:01:07;;;;;;;5.60;3.37;;;22.40;50.50;;;;;;4988671;28;20770;-66
2023/07/03 07:03:37;;;;;;;5.97;3.40;;;22.40;50.50;;;;;;4989289;28;20571;-66
2023/07/03 07:06:11;;;;;;;7.07;3.10;;;22.40;50.30;;;;;;4973227;28;21184;-68
2023/07/03 07:08:40;;;;;;;4.97;3.00;;;22.40;50.50;;;;;;4995303;28;20438;-66
2023/07/03 07:11:10;;;;;;;6.90;3.63;;;22.40;50.60;;;;;;4985729;28;20792;-65
2023/07/03 07:13:41;;;;;;;5.77;2.97;;;22.40;50.50;;;;;;4986498;28;20836;-68
2023/07/03 07:16:13;;;;;;;7.30;3.53;;;22.40;50.50;;;;;;4971498;28;20532;-65
2023/07/03 07:18:46;;;;;;;8.20;3.80;;;22.40;50.60;;;;;;4994802;28;20636;-66
2023/07/03 07:21:15;;;;;;;6.27;3.33;;;22.40;50.60;;;;;;4987291;28;20440;-67
2023/07/03 07:23:43;;;;;;;5.80;3.40;;;22.40;50.50;;;;;;4992137;28;20499;-66
2023/07/03 07:26:12;;;;;;;7.37;4.30;;;22.40;50.20;;;;;;4988874;28;20473;-67
2023/07/03 07:28:41;;;;;;;11.40;4.07;;;22.40;50.50;;;;;;4981196;28;20439;-67
2023/07/03 07:31:09;;;;;;;6.07;3.37;;;22.40;50.20;;;;;;4977321;28;20943;-67
2023/07/03 07:33:38;;;;;;;7.43;4.07;;;22.40;50.30;;;;;;4990240;28;20478;-66
2023/07/03 07:36:13;;;;;;;6.50;3.97;;;22.40;50.30;;;;;;4990377;28;20507;-67
2023/07/03 07:38:42;;;;;;;4.93;3.40;;;22.40;50.20;;;;;;4996146;28;20484;-65
2023/07/03 07:41:12;;;;;;;7.40;3.73;;;22.50;50.00;;;;;;4995702;28;20452;-65
2023/07/03 07:43:41;;;;;;;6.73;4.17;;;22.50;49.70;;;;;;4985464;28;20995;-65
2023/07/03 07:46:10;;;;;;;6.90;4.00;;;22.40;49.30;;;;;;4987913;28;20445;-65
2023/07/03 07:48:39;;;;;;;7.63;3.47;;;22.40;49.30;;;;;;4983765;28;20457;-66
2023/07/03 07:51:10;;;;;;;6.07;3.27;;;22.40;49.30;;;;;;4985336;28;20806;-64
2023/07/03 07:53:39;;;;;;;5.20;3.27;;;22.40;49.10;;;;;;4991466;28;20476;-65
2023/07/03 07:56:10;;;;;;;5.70;3.30;;;22.50;49.10;;;;;;4976417;28;20865;-67
2023/07/03 07:58:39;;;;;;;6.03;2.90;;;22.40;48.90;;;;;;5002434;28;20453;-66
2023/07/03 08:01:11;;;;;;;4.67;3.00;;;22.40;48.90;;;;;;4989292;28;20452;-67
2023/07/03 08:03:41;;;;;;;3.93;2.83;;;22.40;49.20;;;;;;4973260;28;20627;-67
2023/07/03 08:06:12;;;;;;;4.70;3.10;;;22.40;48.80;;;;;;4987810;28;20444;-69
2023/07/03 08:08:41;;;;;;;8.23;3.80;;;22.40;48.90;;;;;;4995575;28;20444;-68
2023/07/03 08:11:10;;;;;;;8.90;4.70;;;22.70;44.30;;;;;;4969886;28;20430;-67
2023/07/03 08:13:41;;;;;;;12.10;4.07;;;22.60;43.30;;;;;;4982539;28;20533;-67
2023/07/03 08:16:11;;;;;;;9.13;4.33;;;22.30;44.50;;;;;;4985433;28;20444;-65
2023/07/03 08:18:40;;;;;;;9.90;4.17;;;22.30;45.20;;;;;;4985622;28;20560;-67
2023/07/03 08:21:10;;;;;;;12.40;4.30;;;22.20;45.30;;;;;;4985801;28;20728;-66
2023/07/03 08:23:39;;;;;;;9.97;3.90;;;22.20;45.60;;;;;;4985219;28;20486;-67
2023/07/03 08:26:08;;;;;;;9.17;3.63;;;22.30;46.20;;;;;;4985957;28;20428;-66
2023/07/03 08:28:37;;;;;;;7.20;4.37;;;22.30;46.40;;;;;;4986089;28;20447;-67
2023/07/03 08:31:05;;;;;;;8.70;4.30;;;22.30;46.70;;;;;;4977464;28;20439;-67
2023/07/03 08:33:34;;;;;;;5.67;3.37;;;22.30;46.90;;;;;;4973103;28;20487;-72
2023/07/03 08:36:04;;;;;;;7.10;4.20;;;22.30;46.90;;;;;;4967801;28;20450;-72
2023/07/03 08:38:37;;;;;;;6.90;3.40;;;22.30;47.00;;;;;;4979925;28;21251;-72
2023/07/03 08:41:06;;;;;;;6.13;3.60;;;22.40;47.10;;;;;;4984163;28;20514;-72
2023/07/03 08:43:40;;;;;;;5.37;3.93;;;22.30;47.20;;;;;;4973271;28;20518;-73
2023/07/03 08:46:12;;;;;;;8.40;4.73;;;22.30;47.40;;;;;;4975309;28;20426;-71
2023/07/03 08:48:43;;;;;;;7.73;3.83;;;22.30;47.30;;;;;;4980111;28;20466;-73
2023/07/03 08:51:15;;;;;;;4.27;3.23;;;22.40;47.60;;;;;;4974936;28;20955;-71
2023/07/03 08:53:51;;;;;;;5.67;3.20;;;22.30;47.50;;;;;;4995810;28;20451;-72
2023/07/03 08:56:23;;;;;;;3.43;3.03;;;22.40;47.70;;;;;;4991213;28;20440;-71
2023/07/03 08:58:52;;;;;;;6.50;4.20;;;22.40;47.20;;;;;;4998006;28;20482;-71
2023/07/03 09:01:28;;;;;;;4.87;3.50;;;22.40;47.20;;;;;;4995331;28;20959;-72
2023/07/03 09:04:09;;;;;;;4.53;3.60;;;22.40;47.10;;;;;;4990068;28;20548;-72
2023/07/03 09:06:45;;;;;;;7.90;3.60;;;22.40;47.20;;;;;;4977344;28;20856;-72
2023/07/03 09:09:22;;;;;;;10.17;4.10;;;22.40;46.70;;;;;;4999559;28;20462;-72
2023/07/03 09:12:01;;;;;;;4.77;3.50;;;22.40;46.80;;;;;;4977340;28;20801;-72
2023/07/03 09:14:38;;;;;;;6.10;3.80;;;22.40;47.10;;;;;;4991397;28;20469;-72
2023/07/03 09:17:09;;;;;;;5.10;3.37;;;22.40;47.50;;;;;;4974174;28;20575;-72
2023/07/03 09:19:43;;;;;;;5.50;3.43;;;22.40;47.20;;;;;;4989254;28;20755;-72
2023/07/03 09:22:19;;;;;;;5.07;3.37;;;22.40;47.50;;;;;;4992719;28;20465;-73
2023/07/03 09:24:52;;;;;;;5.47;3.00;;;22.40;47.50;;;;;;4976328;28;20484;-72
2023/07/03 09:27:24;;;;;;;4.40;2.90;;;22.40;47.50;;;;;;4998369;28;20478;-71
2023/07/03 09:29:55;;;;;;;5.80;3.20;;;22.40;47.00;;;;;;4988302;28;20504;-72
2023/07/03 09:32:27;;;;;;;5.90;3.50;;;22.40;46.90;;;;;;4987605;28;20477;-72
2023/07/03 09:35:07;;;;;;;7.80;3.43;;;22.30;46.50;;;;;;4993392;28;20507;-73
2023/07/03 09:37:38;;;;;;;5.33;3.50;;;22.30;46.90;;;;;;4987611;28;20454;-66
2023/07/03 09:40:14;;;;;;;7.60;3.70;;;22.30;46.80;;;;;;4990866;28;20529;-67
2023/07/03 09:42:43;;;;;;;7.17;3.40;;;22.30;46.80;;;;;;4990505;28;20466;-67
2023/07/03 09:45:16;;;;;;;8.50;3.90;;;22.30;47.20;;;;;;4978287;28;20474;-73
2023/07/03 09:47:50;;;;;;;3.67;2.73;;;22.30;47.10;;;;;;4986853;28;20439;-66
2023/07/03 09:50:25;;;;;;;5.80;3.23;;;22.30;47.40;;;;;;4988319;28;20471;-67
2023/07/03 09:52:56;;;;;;;10.27;3.23;;;22.30;47.20;;;;;;4970689;28;20575;-67
2023/07/03 09:55:37;;;;;;;6.30;3.33;;;22.30;47.40;;;;;;4987264;28;20470;-65
2023/07/03 09:58:15;;;;;;;4.73;3.60;;;22.30;47.00;;;;;;4993533;28;20491;-71
2023/07/03 10:00:46;;;;;;;5.73;3.50;;;22.30;47.20;;;;;;4984455;28;20475;-72
2023/07/03 10:03:24;;;;;;;8.03;4.40;;;22.30;47.00;;;;;;4972403;28;20460;-72
2023/07/03 10:05:56;;;;;;;5.30;3.27;;;22.30;47.00;;;;;;4985344;28;21981;-73
2023/07/03 10:08:28;;;;;;;4.93;3.40;;;22.30;47.30;;;;;;4992695;28;20436;-71
2023/07/03 10:11:03;;;;;;;5.27;2.83;;;22.30;47.00;;;;;;4991213;28;20427;-72
2023/07/03 10:13:39;;;;;;;6.53;3.60;;;22.30;47.00;;;;;;4989982;28;20580;-72
2023/07/03 10:16:10;;;;;;;5.73;3.10;;;22.30;46.90;;;;;;4973670;28;20440;-72
2023/07/03 10:18:40;;;;;;;7.53;3.10;;;22.30;47.10;;;;;;4986844;28;20451;-72
2023/07/03 10:21:13;;;;;;;10.67;3.80;;;22.30;47.20;;;;;;4979220;28;20471;-72
2023/07/03 10:23:42;;;;;;;7.60;3.17;;;22.30;47.20;;;;;;4987472;28;20463;-72
2023/07/03 10:26:18;;;;;;;7.80;3.40;;;22.30;47.00;;;;;;4972324;28;20484;-72
2023/07/03 10:28:49;;;;;;;3.80;2.70;;;22.30;47.00;;;;;;4999125;28;20439;-73
2023/07/03 10:31:24;;;;;;;5.20;3.27;;;22.30;46.70;;;;;;4987788;28;20517;-72
2023/07/03 10:34:01;;;;;;;5.83;3.40;;;22.30;46.90;;;;;;4986242;28;20473;-73
2023/07/03 10:36:32;;;;;;;6.00;3.87;;;22.30;46.90;;;;;;4984166;28;20550;-73
2023/07/03 10:39:07;;;;;;;6.90;3.70;;;22.30;46.80;;;;;;4987586;28;20539;-72
2023/07/03 10:41:43;;;;;;;4.77;2.70;;;22.30;47.20;;;;;;4972444;28;20459;-72
2023/07/03 10:44:17;;;;;;;5.90;3.10;;;22.30;47.10;;;;;;4968873;28;20467;-73
2023/07/03 10:46:51;;;;;;;5.40;3.20;;;22.30;46.70;;;;;;4990500;28;20578;-72
2023/07/03 10:49:26;;;;;;;6.50;3.47;;;22.30;47.00;;;;;;5001150;28;20480;-72
2023/07/03 10:52:03;;;;;;;5.40;3.33;;;22.30;46.70;;;;;;4986594;28;20471;-72
2023/07/03 10:54:42;;;;;;;5.13;3.30;;;22.30;46.40;;;;;;4987327;28;20636;-73
2023/07/03 10:57:16;;;;;;;4.80;3.33;;;22.30;46.40;;;;;;4985988;28;20475;-71
2023/07/03 10:59:50;;;;;;;5.57;2.87;;;22.30;46.40;;;;;;4984858;28;20463;-74
2023/07/03 11:02:30;;;;;;;4.10;3.40;;;22.30;46.40;;;;;;4992981;28;20971;-73
2023/07/03 11:05:07;;;;;;;5.73;3.10;;;22.30;46.20;;;;;;4967696;28;20481;-72
2023/07/03 11:07:43;;;;;;;6.00;3.10;;;22.30;46.70;;;;;;4981739;28;20450;-72
2023/07/03 11:10:18;;;;;;;5.17;2.73;;;22.30;45.90;;;;;;4981456;28;20472;-72
2023/07/03 11:12:56;;;;;;;5.03;2.67;;;22.30;46.40;;;;;;4981776;28;20530;-71
2023/07/03 11:15:36;;;;;;;4.13;2.90;;;22.30;46.70;;;;;;4980042;28;20495;-72
2023/07/03 11:18:41;;;;;;;5.73;3.47;;;22.30;46.20;;;;;;4963747;28;20475;-72
2023/07/03 11:21:22;;;;;;;6.03;2.60;;;22.30;46.40;;;;;;4978614;28;20471;-71
2023/07/03 11:24:01;;;;;;;5.00;3.30;;;22.30;46.20;;;;;;4983609;28;21118;-72
2023/07/03 11:26:36;;;;;;;5.63;2.80;;;22.30;46.30;;;;;;4970906;28;20475;-72
2023/07/03 11:29:11;;;;;;;7.07;3.20;;;22.30;46.20;;;;;;4980577;28;20837;-71
2023/07/03 11:31:42;;;;;;;4.67;2.80;;;22.30;46.70;;;;;;4998528;28;20978;-71
2023/07/03 11:34:14;;;;;;;5.23;3.20;;;22.30;46.40;;;;;;4987327;28;20455;-72
2023/07/03 11:36:48;;;;;;;4.37;2.97;;;22.30;46.70;;;;;;4984742;28;20455;-73
2023/07/03 11:39:33;;;;;;;5.00;2.90;;;22.30;46.40;;;;;;4985012;28;20460;-71
2023/07/03 11:42:13;;;;;;;4.80;3.00;;;22.30;46.30;;;;;;4989813;28;20450;-72
2023/07/03 11:44:48;;;;;;;4.10;3.30;;;22.30;46.50;;;;;;4971289;28;20542;-73
2023/07/03 11:47:24;;;;;;;7.10;3.17;;;22.30;46.80;;;;;;4974483;28;20559;-72
2023/07/03 11:49:58;;;;;;;4.77;3.20;;;22.30;47.00;;;;;;4984632;28;20482;-66
2023/07/03 11:52:29;;;;;;;5.53;3.20;;;22.30;46.60;;;;;;4975429;28;20513;-65
2023/07/03 11:55:00;;;;;;;6.10;3.10;;;22.30;47.50;;;;;;4992676;28;20524;-68
2023/07/03 11:57:32;;;;;;;6.80;3.40;;;22.30;46.40;;;;;;4971333;28;20436;-66
2023/07/03 12:00:26;;;;;;;3.77;3.37;;;22.30;46.40;;;;;;4972989;28;20483;-67
2023/07/03 12:02:57;;;;;;;5.10;3.30;;;22.30;46.30;;;;;;4973108;28;20486;-68
2023/07/03 12:05:56;;;;;;;6.43;3.23;;;22.30;46.50;;;;;;4986246;28;21043;-66
2023/07/03 12:08:53;;;;;;;8.03;3.60;;;22.30;46.30;;;;;;4986079;28;20648;-67
2023/07/03 12:11:26;;;;;;;4.17;3.33;;;22.30;46.50;;;;;;4941318;28;20454;-68
2023/07/03 12:13:55;;;;;;;4.90;3.13;;;22.30;46.60;;;;;;4973036;28;20511;-66
2023/07/03 12:16:32;;;;;;;4.73;3.13;;;22.30;46.70;;;;;;4984942;28;20440;-66
2023/07/03 12:19:07;;;;;;;4.60;3.03;;;22.40;46.90;;;;;;4970984;28;20495;-67
2023/07/03 12:21:39;;;;;;;4.70;3.00;;;22.30;47.10;;;;;;4985173;28;20786;-67
2023/07/03 12:24:27;;;;;;;4.27;3.13;;;22.30;46.70;;;;;;4965179;28;20494;-67
2023/07/03 12:27:00;;;;;;;9.70;3.13;;;22.40;46.70;;;;;;4994074;28;20483;-67
2023/07/03 12:29:31;;;;;;;4.83;2.70;;;22.30;46.70;;;;;;4987296;28;20487;-67
2023/07/03 12:32:05;;;;;;;5.83;2.90;;;22.30;46.80;;;;;;4984600;28;20490;-66
2023/07/03 12:34:36;;;;;;;5.97;3.50;;;22.30;46.60;;;;;;4982588;28;20506;-67
2023/07/03 12:37:08;;;;;;;5.87;3.20;;;22.40;46.90;;;;;;4972620;28;20448;-65
2023/07/03 12:39:37;;;;;;;4.80;3.30;;;22.40;47.00;;;;;;4984666;28;20484;-67
2023/07/03 12:42:10;;;;;;;5.03;3.30;;;22.40;47.10;;;;;;4982995;28;20842;-67
2023/07/03 12:44:39;;;;;;;5.53;3.60;;;22.40;47.20;;;;;;4989099;28;20502;-65
2023/07/03 12:47:11;;;;;;;5.17;3.20;;;22.40;47.10;;;;;;4974527;28;20512;-67
2023/07/03 12:49:58;;;;;;;5.20;2.90;;;22.40;46.90;;;;;;4991451;28;20468;-66
2023/07/03 12:52:30;;;;;;;3.97;3.17;;;22.40;46.80;;;;;;4998625;28;20495;-67
2023/07/03 12:55:00;;;;;;;5.30;3.20;;;22.40;47.00;;;;;;4996991;28;20479;-67
2023/07/03 12:57:34;;;;;;;5.10;2.90;;;22.40;47.20;;;;;;4998148;28;20434;-68
2023/07/03 13:00:03;;;;;;;5.17;3.17;;;22.40;47.20;;;;;;4991875;28;20542;-67
2023/07/03 13:02:35;;;;;;;4.10;2.87;;;22.50;47.30;;;;;;4996326;28;20554;-67
2023/07/03 13:05:07;;;;;;;6.17;3.50;;;22.40;47.20;;;;;;4994346;28;20484;-68
2023/07/03 13:07:35;;;;;;;3.70;3.10;;;22.40;46.90;;;;;;4969970;28;20464;-66